Time;durP1;ratioP1;P1;durP2;ratioP2;P2;SDS_P1;SDS_P2;PMS_P1;PMS_P2;Temp;Humidity;BMP_temperature;BMP_pressure;BME280_temperature;BME280_humidity;BME280_pressure;Samples;Min_cycle;Max_cycle;Signal;HPM_P1;HPM_P2
2021/12/15 00:01:08;;;;;;;37.20;23.37;;;8.90;99.90;;;;;;5044770;28;20190;-80
2021/12/15 00:03:34;;;;;;;35.30;23.87;;;8.90;99.90;;;;;;5045135;28;20224;-79
2021/12/15 00:06:10;;;;;;;34.80;23.63;;;8.80;99.90;;;;;;5034688;28;20261;-78
2021/12/15 00:08:40;;;;;;;36.57;22.87;;;8.80;99.90;;;;;;5033980;28;20694;-80
2021/12/15 00:11:11;;;;;;;35.47;23.10;;;8.80;99.90;;;;;;5051855;28;20363;-79
2021/12/15 00:13:44;;;;;;;34.77;22.33;;;8.90;99.90;;;;;;5038291;28;20184;-79
2021/12/15 00:16:11;;;;;;;33.97;22.70;;;8.90;99.90;;;;;;5032858;28;20252;-80
2021/12/15 00:18:42;;;;;;;33.57;21.97;;;8.90;99.90;;;;;;5049579;28;20206;-79
2021/12/15 00:21:12;;;;;;;32.20;21.17;;;8.90;99.90;;;;;;5040748;28;20173;-78
2021/12/15 00:23:39;;;;;;;31.87;20.50;;;8.90;99.90;;;;;;5039442;28;20197;-80
2021/12/15 00:26:10;;;;;;;34.67;22.20;;;8.90;99.90;;;;;;5040979;28;20253;-79
2021/12/15 00:28:36;;;;;;;35.23;21.93;;;8.90;99.90;;;;;;5049182;28;20197;-79
2021/12/15 00:31:05;;;;;;;34.03;22.60;;;8.90;99.90;;;;;;5027238;28;20714;-78
2021/12/15 00:33:32;;;;;;;32.63;22.03;;;8.90;99.90;;;;;;5058041;28;20185;-79
2021/12/15 00:35:58;;;;;;;31.90;20.33;;;8.90;99.90;;;;;;5033959;28;20180;-79
2021/12/15 00:38:24;;;;;;;35.47;21.50;;;8.90;99.90;;;;;;5031108;28;20200;-78
2021/12/15 00:41:01;;;;;;;35.57;21.83;;;8.90;99.90;;;;;;5027149;28;20182;-80
2021/12/15 00:43:27;;;;;;;30.63;20.27;;;8.80;99.90;;;;;;5032685;28;20190;-80
2021/12/15 00:45:59;;;;;;;35.00;21.90;;;8.80;99.90;;;;;;5040463;28;20186;-80
2021/12/15 00:48:32;;;;;;;34.67;20.63;;;8.80;99.90;;;;;;5030014;28;20242;-78
2021/12/15 00:51:06;;;;;;;31.03;21.27;;;8.80;99.90;;;;;;5031044;28;20184;-78
2021/12/15 00:53:50;;;;;;;31.97;21.30;;;8.80;99.90;;;;;;5039195;28;20193;-79
2021/12/15 00:56:26;;;;;;;32.73;20.57;;;8.90;99.90;;;;;;5031916;28;20177;-78
2021/12/15 00:58:52;;;;;;;31.27;20.77;;;8.90;99.90;;;;;;5045789;28;20651;-77
2021/12/15 01:01:24;;;;;;;29.80;20.33;;;8.90;99.90;;;;;;5029673;28;20178;-78
2021/12/15 01:03:51;;;;;;;30.70;20.13;;;8.90;99.90;;;;;;5030484;28;20209;-78
2021/12/15 01:06:22;;;;;;;31.03;21.20;;;9.00;99.90;;;;;;5037601;28;20179;-81
2021/12/15 01:08:58;;;;;;;31.17;20.37;;;8.90;99.90;;;;;;5051349;28;20237;-78
2021/12/15 01:19:52;;;;;;;27.23;18.60;;;9.00;99.90;;;;;;5050117;28;20201;-79
2021/12/15 01:22:42;;;;;;;29.90;19.77;;;9.00;99.90;;;;;;5056226;28;20207;-77
2021/12/15 01:25:21;;;;;;;29.40;19.40;;;9.00;99.90;;;;;;5051234;28;20180;-79
2021/12/15 01:27:51;;;;;;;29.37;19.63;;;9.00;99.90;;;;;;5043488;28;20206;-78
2021/12/15 01:30:20;;;;;;;28.17;18.93;;;9.00;99.90;;;;;;5054890;28;20196;-77
2021/12/15 01:32:52;;;;;;;27.33;19.63;;;9.00;99.90;;;;;;5072439;28;20180;-77
2021/12/15 01:35:19;;;;;;;29.17;19.43;;;9.00;99.90;;;;;;5042782;28;20183;-79
2021/12/15 01:37:52;;;;;;;29.83;18.90;;;9.10;99.90;;;;;;5038297;28;20243;-79
2021/12/15 01:40:38;;;;;;;29.83;20.17;;;9.20;99.90;;;;;;5046520;28;20184;-78
2021/12/15 01:43:36;;;;;;;26.87;18.77;;;9.10;99.90;;;;;;5069405;28;20265;-79
2021/12/15 01:48:57;;;;;;;27.30;19.50;;;9.10;99.90;;;;;;5051445;28;20191;-77
2021/12/15 01:51:33;;;;;;;27.00;18.50;;;9.20;99.90;;;;;;5050345;28;20169;-79
2021/12/15 01:54:10;;;;;;;26.63;20.17;;;9.20;99.90;;;;;;5039376;28;20710;-77
2021/12/15 01:56:42;;;;;;;27.47;19.77;;;9.20;99.90;;;;;;5040306;28;20683;-79
2021/12/15 01:59:16;;;;;;;29.33;19.70;;;9.20;99.90;;;;;;5037527;28;20193;-80
2021/12/15 02:01:48;;;;;;;28.80;20.37;;;9.20;99.90;;;;;;5038436;28;20183;-78
2021/12/15 02:04:16;;;;;;;28.17;19.13;;;9.20;99.90;;;;;;5039618;28;20212;-79
2021/12/15 02:06:49;;;;;;;29.53;20.43;;;9.10;99.90;;;;;;5038106;28;20184;-79
2021/12/15 02:09:39;;;;;;;29.73;20.17;;;9.20;99.90;;;;;;5030654;28;20203;-80
2021/12/15 02:12:17;;;;;;;30.13;20.77;;;9.10;99.90;;;;;;5046231;28;20240;-79
2021/12/15 02:14:44;;;;;;;34.93;22.80;;;9.20;99.90;;;;;;5037054;28;20178;-79
2021/12/15 02:17:13;;;;;;;30.67;21.33;;;9.20;99.90;;;;;;5038066;28;20189;-78
2021/12/15 02:19:42;;;;;;;34.17;21.93;;;9.20;99.90;;;;;;5028586;28;20265;-76
2021/12/15 02:22:24;;;;;;;34.47;22.90;;;9.30;99.90;;;;;;5033379;28;20208;-78
2021/12/15 02:24:53;;;;;;;32.33;21.17;;;9.30;99.90;;;;;;5031836;28;20237;-77
2021/12/15 02:27:34;;;;;;;36.27;22.73;;;9.30;99.90;;;;;;5018604;28;20178;-78
2021/12/15 02:31:10;;;;;;;38.40;23.30;;;9.30;99.90;;;;;;5013143;28;20182;-80
2021/12/15 02:38:40;;;;;;;39.07;24.87;;;9.30;99.90;;;;;;5030665;28;20206;-79
2021/12/15 02:41:19;;;;;;;38.53;23.13;;;9.20;99.90;;;;;;5030129;28;20185;-79
2021/12/15 02:43:53;;;;;;;36.23;23.53;;;9.30;99.90;;;;;;5020613;28;20208;-78
2021/12/15 02:46:28;;;;;;;37.43;23.10;;;9.30;99.90;;;;;;5013940;28;20196;-79
2021/12/15 02:49:11;;;;;;;42.13;24.77;;;9.30;99.90;;;;;;5014637;28;20204;-78
2021/12/15 02:51:45;;;;;;;42.10;25.07;;;9.20;99.90;;;;;;5019328;28;20174;-76
2021/12/15 02:54:23;;;;;;;42.60;24.53;;;9.30;99.90;;;;;;5018898;28;20182;-78
2021/12/15 02:57:04;;;;;;;42.47;25.00;;;9.30;99.90;;;;;;5034795;28;20181;-79
2021/12/15 02:59:52;;;;;;;46.03;27.23;;;9.30;99.90;;;;;;5031906;28;20204;-79
2021/12/15 03:05:25;;;;;;;45.70;25.60;;;9.30;99.90;;;;;;5041239;28;20163;-78
2021/12/15 03:16:12;;;;;;;45.40;26.63;;;9.30;99.90;;;;;;5028079;28;20184;-80
2021/12/15 03:18:39;;;;;;;48.23;26.23;;;9.30;99.90;;;;;;5034735;28;20202;-79
2021/12/15 03:21:17;;;;;;;43.90;25.27;;;9.30;99.90;;;;;;5041179;28;20673;-80
2021/12/15 03:24:08;;;;;;;43.93;25.87;;;9.30;99.90;;;;;;5052188;28;20727;-80
2021/12/15 03:26:44;;;;;;;44.13;25.33;;;9.30;99.90;;;;;;5046889;28;20163;-79
2021/12/15 03:35:16;;;;;;;41.73;24.60;;;9.30;99.90;;;;;;5051148;28;20171;-79
2021/12/15 03:37:56;;;;;;;45.20;25.93;;;9.30;99.90;;;;;;5041049;28;20200;-79
2021/12/15 03:40:41;;;;;;;46.97;26.50;;;9.30;99.90;;;;;;5033160;28;20234;-79
2021/12/15 03:43:15;;;;;;;48.47;25.97;;;9.20;99.90;;;;;;5067661;28;20345;-79
2021/12/15 03:46:02;;;;;;;47.27;26.03;;;9.30;99.90;;;;;;5030859;28;20175;-80
2021/12/15 03:48:34;;;;;;;54.23;26.57;;;9.30;99.90;;;;;;5040709;28;20201;-79
2021/12/15 03:51:07;;;;;;;45.77;25.63;;;9.30;99.90;;;;;;5040200;28;20174;-79
2021/12/15 03:53:39;;;;;;;49.03;25.50;;;9.30;99.90;;;;;;5033169;28;20185;-78
2021/12/15 03:56:11;;;;;;;51.47;25.60;;;9.30;99.90;;;;;;5058676;28;20209;-78
2021/12/15 03:58:45;;;;;;;48.30;24.67;;;9.30;99.90;;;;;;5030488;28;20282;-79
2021/12/15 04:01:17;;;;;;;48.03;25.47;;;9.30;99.90;;;;;;5048077;28;20184;-78
2021/12/15 04:03:52;;;;;;;50.03;25.87;;;9.30;99.90;;;;;;5056692;28;20602;-79
2021/12/15 04:06:31;;;;;;;51.43;26.07;;;9.30;99.90;;;;;;5041873;28;20202;-79
2021/12/15 04:09:03;;;;;;;48.27;24.67;;;9.30;99.90;;;;;;5067286;28;20203;-79
2021/12/15 04:11:34;;;;;;;47.07;25.30;;;9.40;99.90;;;;;;5044409;28;20176;-79
2021/12/15 04:14:12;;;;;;;49.50;24.37;;;9.40;99.90;;;;;;5034851;28;20213;-79
2021/12/15 04:16:46;;;;;;;49.40;24.27;;;9.40;99.90;;;;;;5041827;28;20178;-78
2021/12/15 04:19:20;;;;;;;44.53;23.93;;;9.40;99.90;;;;;;5046871;22;20218;-77
2021/12/15 04:21:47;;;;;;;47.93;23.80;;;9.40;99.90;;;;;;5000051;28;20206;-77
2021/12/15 04:24:15;;;;;;;44.83;23.43;;;9.40;99.90;;;;;;5002513;28;20207;-77
2021/12/15 04:26:43;;;;;;;45.47;24.30;;;9.40;99.90;;;;;;4996672;28;20183;-77
2021/12/15 04:29:29;;;;;;;48.47;24.23;;;9.40;99.90;;;;;;5012802;28;20206;-79
2021/12/15 04:32:12;;;;;;;49.87;24.77;;;9.40;99.90;;;;;;4983570;28;20178;-80
2021/12/15 04:34:42;;;;;;;49.87;25.17;;;9.50;99.90;;;;;;5016589;28;20185;-78
2021/12/15 04:37:07;;;;;;;50.77;25.43;;;9.40;99.90;;;;;;4997152;28;20180;-78
2021/12/15 04:39:33;;;;;;;48.90;24.63;;;9.40;99.90;;;;;;5009495;28;20202;-78
2021/12/15 04:42:00;;;;;;;48.93;24.00;;;9.40;99.90;;;;;;5002230;28;20212;-77
2021/12/15 04:44:33;;;;;;;47.63;24.80;;;9.40;99.90;;;;;;4979750;28;20219;-78
2021/12/15 04:47:05;;;;;;;52.07;25.03;;;9.40;99.90;;;;;;4979700;28;20262;-78
2021/12/15 04:49:35;;;;;;;53.73;25.23;;;9.50;99.90;;;;;;4979293;28;20205;-79
2021/12/15 04:52:02;;;;;;;54.47;25.73;;;9.40;99.90;;;;;;4965227;28;20207;-78
2021/12/15 04:54:29;;;;;;;55.37;25.50;;;9.40;99.90;;;;;;4993981;28;20551;-78
2021/12/15 04:57:06;;;;;;;51.20;24.10;;;9.40;99.90;;;;;;4984845;28;20183;-78
2021/12/15 04:59:33;;;;;;;51.97;24.27;;;9.40;99.90;;;;;;5015695;28;20212;-78
2021/12/15 05:02:00;;;;;;;58.60;25.53;;;9.30;99.90;;;;;;4979064;28;20269;-77
2021/12/15 05:04:26;;;;;;;50.23;24.73;;;9.40;99.90;;;;;;4979375;28;20201;-77
2021/12/15 05:07:33;;;;;;;56.03;24.90;;;9.30;99.90;;;;;;5002488;28;20169;-77
2021/12/15 05:10:00;;;;;;;64.20;27.17;;;9.30;99.90;;;;;;4993977;28;20207;-77
2021/12/15 05:12:26;;;;;;;59.30;26.00;;;9.30;99.90;;;;;;4978907;28;20263;-77
2021/12/15 05:14:51;;;;;;;60.30;26.37;;;9.40;99.90;;;;;;4979234;28;20557;-77
2021/12/15 05:17:17;;;;;;;66.53;26.50;;;9.30;99.90;;;;;;4979433;28;20178;-77
2021/12/15 05:19:46;;;;;;;72.07;28.10;;;9.30;99.90;;;;;;5006325;28;20220;-77
2021/12/15 05:22:13;;;;;;;64.17;26.83;;;9.30;99.90;;;;;;4991193;28;20219;-77
2021/12/15 05:24:40;;;;;;;66.80;28.30;;;9.30;99.90;;;;;;4992954;28;20248;-78
2021/12/15 05:27:11;;;;;;;71.60;29.10;;;9.30;99.90;;;;;;5000740;28;20632;-77
2021/12/15 05:29:39;;;;;;;67.13;29.37;;;9.30;99.90;;;;;;5001932;28;20204;-77
2021/12/15 05:32:06;;;;;;;69.67;28.83;;;9.40;99.90;;;;;;4998588;28;20261;-78
2021/12/15 05:34:32;;;;;;;72.07;29.73;;;9.30;99.90;;;;;;4999408;28;20550;-77
2021/12/15 05:36:58;;;;;;;68.13;28.83;;;9.40;99.90;;;;;;4987718;28;20188;-78
2021/12/15 05:39:41;;;;;;;69.90;29.77;;;9.40;99.90;;;;;;5007810;28;20211;-78
2021/12/15 05:42:07;;;;;;;71.67;29.50;;;9.40;99.90;;;;;;5019228;28;20634;-78
2021/12/15 05:44:35;;;;;;;61.40;28.60;;;9.30;99.90;;;;;;4992095;28;20221;-78
2021/12/15 05:47:03;;;;;;;67.87;29.40;;;9.30;99.90;;;;;;5006667;28;20273;-78
2021/12/15 05:49:29;;;;;;;69.53;29.97;;;9.40;99.90;;;;;;5000635;28;20199;-78
2021/12/15 05:51:55;;;;;;;70.00;31.20;;;9.40;99.90;;;;;;4990065;28;20182;-78
2021/12/15 05:54:21;;;;;;;70.70;29.00;;;9.40;99.90;;;;;;5000970;28;20171;-78
2021/12/15 05:56:48;;;;;;;74.10;31.83;;;9.40;99.90;;;;;;4993780;28;20200;-79
2021/12/15 05:59:14;;;;;;;74.53;33.07;;;9.50;99.90;;;;;;4994952;28;20195;-78
2021/12/15 06:01:40;;;;;;;71.47;31.73;;;9.50;99.90;;;;;;4999667;28;20233;-78
2021/12/15 06:04:19;;;;;;;77.97;33.70;;;9.50;99.90;;;;;;4984053;28;20213;-78
2021/12/15 06:06:44;;;;;;;73.33;34.00;;;9.60;99.90;;;;;;5013315;28;20510;-78
2021/12/15 06:09:14;;;;;;;78.23;33.70;;;9.60;99.90;;;;;;5011483;28;20206;-78
2021/12/15 06:11:42;;;;;;;71.50;33.53;;;9.60;99.90;;;;;;5001958;28;20179;-78
2021/12/15 06:14:09;;;;;;;81.60;35.20;;;9.60;99.90;;;;;;4994262;28;20214;-79
2021/12/15 06:16:36;;;;;;;71.23;33.07;;;9.70;99.90;;;;;;5011227;28;20635;-78
2021/12/15 06:19:03;;;;;;;75.00;34.37;;;9.70;99.90;;;;;;5002527;28;20222;-78
2021/12/15 06:21:31;;;;;;;71.67;31.77;;;9.70;99.90;;;;;;5005350;28;20300;-78
2021/12/15 06:23:57;;;;;;;70.20;32.53;;;9.70;99.90;;;;;;4996934;28;20209;-78
2021/12/15 06:26:23;;;;;;;77.30;34.10;;;9.70;99.90;;;;;;5008123;28;20764;-78
2021/12/15 06:29:06;;;;;;;70.93;31.57;;;9.80;99.90;;;;;;5007495;28;20209;-78
2021/12/15 06:31:32;;;;;;;60.63;30.70;;;9.80;99.90;;;;;;5010584;28;20178;-79
2021/12/15 06:33:58;;;;;;;70.20;33.43;;;9.80;99.90;;;;;;5000006;28;20200;-78
2021/12/15 06:36:24;;;;;;;66.27;33.93;;;9.90;99.90;;;;;;5012020;28;20274;-78
2021/12/15 06:39:06;;;;;;;70.27;33.27;;;9.90;99.90;;;;;;5004667;28;20234;-78
2021/12/15 06:41:32;;;;;;;72.20;33.40;;;9.90;99.90;;;;;;4989154;28;20198;-78
2021/12/15 06:44:05;;;;;;;64.83;32.63;;;10.00;99.90;;;;;;5025734;28;20430;-78
2021/12/15 07:00:35;;;;;;;68.63;35.27;;;10.00;99.90;;;;;;5020344;28;20516;-78
2021/12/15 07:03:05;;;;;;;68.80;35.37;;;10.00;99.90;;;;;;5007810;28;20252;-77
2021/12/15 07:05:32;;;;;;;73.50;36.60;;;10.00;99.90;;;;;;5023872;28;20233;-78
2021/12/15 07:08:05;;;;;;;68.47;36.03;;;10.00;99.90;;;;;;5036205;28;20254;-77
2021/12/15 07:10:34;;;;;;;69.73;35.60;;;10.10;99.90;;;;;;4990522;28;20605;-77
2021/12/15 07:13:11;;;;;;;66.17;35.83;;;10.10;99.90;;;;;;5016743;28;20545;-77
2021/12/15 07:15:44;;;;;;;64.07;35.53;;;10.00;99.90;;;;;;5016970;28;20181;-77
2021/12/15 07:18:13;;;;;;;66.57;35.47;;;10.00;99.90;;;;;;5022616;28;20206;-79
2021/12/15 07:20:48;;;;;;;68.77;37.27;;;10.00;99.90;;;;;;4973245;28;20180;-77
2021/12/15 07:23:19;;;;;;;69.33;36.57;;;10.00;99.90;;;;;;4996855;28;20242;-77
2021/12/15 07:25:47;;;;;;;66.00;35.87;;;10.00;99.90;;;;;;4972270;28;20233;-77
2021/12/15 07:28:14;;;;;;;65.10;34.53;;;10.00;99.90;;;;;;4964984;28;20207;-77
2021/12/15 07:30:41;;;;;;;62.73;34.47;;;10.00;99.90;;;;;;4968051;28;20551;-78
2021/12/15 07:33:12;;;;;;;63.07;34.97;;;10.00;99.90;;;;;;4969339;28;20194;-78
2021/12/15 07:35:45;;;;;;;57.83;33.60;;;10.10;99.90;;;;;;4993128;28;20202;-78
2021/12/15 07:38:11;;;;;;;62.37;33.83;;;10.00;99.90;;;;;;4969603;28;20290;-77
2021/12/15 07:40:39;;;;;;;60.50;33.30;;;10.00;99.90;;;;;;4960740;28;20270;-78
2021/12/15 07:43:13;;;;;;;57.80;33.47;;;10.00;99.90;;;;;;4958040;28;20206;-78
2021/12/15 07:45:50;;;;;;;55.77;33.83;;;10.10;99.90;;;;;;4984742;28;20179;-78
2021/12/15 07:48:17;;;;;;;58.07;33.33;;;10.10;99.90;;;;;;4973094;28;20255;-78
2021/12/15 07:50:45;;;;;;;54.63;32.23;;;10.10;99.90;;;;;;4969034;28;20176;-78
2021/12/15 07:53:15;;;;;;;53.03;32.90;;;10.20;99.90;;;;;;4958322;28;20180;-78
2021/12/15 07:55:41;;;;;;;51.43;32.20;;;10.20;99.90;;;;;;4962657;28;20302;-78
2021/12/15 07:58:09;;;;;;;54.03;32.53;;;10.20;99.90;;;;;;4960070;28;20231;-79
2021/12/15 08:00:37;;;;;;;54.40;32.00;;;10.20;99.90;;;;;;4992068;28;20702;-78
2021/12/15 08:03:03;;;;;;;53.03;31.17;;;10.10;99.90;;;;;;4973940;28;20217;-78
2021/12/15 08:05:29;;;;;;;47.97;30.63;;;10.10;99.90;;;;;;4968898;28;20659;-78
2021/12/15 08:07:55;;;;;;;48.70;30.33;;;10.10;99.90;;;;;;4966166;28;20187;-77
2021/12/15 08:10:27;;;;;;;49.10;30.80;;;10.20;99.90;;;;;;4967191;28;20186;-78
2021/12/15 08:12:53;;;;;;;44.97;29.03;;;10.20;99.90;;;;;;4964370;28;20234;-77
2021/12/15 08:15:19;;;;;;;48.60;30.47;;;10.20;99.90;;;;;;4973525;28;20573;-78
2021/12/15 08:17:50;;;;;;;47.53;30.00;;;10.20;99.90;;;;;;4962635;28;20174;-77
2021/12/15 08:20:19;;;;;;;46.70;29.97;;;10.20;99.90;;;;;;4971196;28;20515;-78
2021/12/15 08:22:44;;;;;;;47.73;30.30;;;10.20;99.90;;;;;;4967382;28;20680;-77
2021/12/15 08:25:13;;;;;;;51.57;31.50;;;10.20;99.90;;;;;;4986552;28;20187;-78
2021/12/15 08:27:40;;;;;;;45.93;30.10;;;10.20;99.90;;;;;;4994339;28;20183;-80
2021/12/15 08:30:09;;;;;;;45.97;28.80;;;10.20;99.90;;;;;;4995952;28;20228;-78
2021/12/15 08:32:36;;;;;;;44.20;28.87;;;10.20;99.90;;;;;;5010580;28;20194;-79
2021/12/15 08:35:03;;;;;;;43.17;28.67;;;10.20;99.90;;;;;;5003860;28;20173;-80
2021/12/15 08:37:28;;;;;;;43.30;27.90;;;10.20;99.90;;;;;;4995449;28;20205;-79
2021/12/15 08:39:54;;;;;;;43.97;29.27;;;10.20;99.90;;;;;;4994846;28;20246;-81
2021/12/15 08:42:20;;;;;;;46.33;29.67;;;10.20;99.90;;;;;;4994277;28;20217;-79
2021/12/15 08:44:46;;;;;;;42.47;27.53;;;10.20;99.90;;;;;;4995415;28;20187;-79
2021/12/15 08:47:12;;;;;;;44.20;29.27;;;10.20;99.90;;;;;;5012238;28;20178;-80
2021/12/15 08:49:38;;;;;;;41.73;27.93;;;10.20;99.90;;;;;;4995340;28;20670;-78
2021/12/15 08:52:05;;;;;;;42.80;28.83;;;10.20;99.90;;;;;;5010842;28;20175;-77
2021/12/15 08:54:31;;;;;;;42.67;29.37;;;10.20;99.90;;;;;;4990200;28;20194;-78
2021/12/15 08:56:57;;;;;;;45.43;29.23;;;10.20;99.90;;;;;;4997181;28;20186;-79
2021/12/15 08:59:25;;;;;;;42.83;27.97;;;10.20;99.90;;;;;;4996251;28;20197;-80
2021/12/15 09:01:52;;;;;;;41.97;28.23;;;10.20;99.90;;;;;;5028777;28;20267;-78
2021/12/15 09:04:18;;;;;;;42.63;28.00;;;10.30;99.90;;;;;;4985351;28;20209;-77
2021/12/15 09:06:46;;;;;;;43.30;27.83;;;10.30;99.90;;;;;;4975756;28;20262;-78
2021/12/15 09:09:14;;;;;;;44.90;29.40;;;10.30;99.90;;;;;;4975131;28;20199;-77
2021/12/15 09:11:42;;;;;;;42.73;27.73;;;10.30;99.90;;;;;;4975367;28;20174;-77
2021/12/15 09:14:11;;;;;;;44.20;28.53;;;10.30;99.90;;;;;;4991171;28;20183;-78
2021/12/15 09:16:40;;;;;;;44.57;29.60;;;10.30;99.90;;;;;;4968636;28;20179;-78
2021/12/15 09:19:06;;;;;;;46.47;29.70;;;10.20;99.90;;;;;;4982654;28;20213;-78
2021/12/15 09:21:34;;;;;;;45.10;29.20;;;10.30;99.90;;;;;;4991595;28;20189;-77
2021/12/15 09:24:03;;;;;;;41.07;27.40;;;10.20;99.90;;;;;;4988281;28;20214;-77
2021/12/15 09:26:29;;;;;;;44.63;29.57;;;10.30;99.90;;;;;;4968432;28;20714;-78
2021/12/15 09:28:55;;;;;;;43.87;29.40;;;10.20;99.90;;;;;;4972498;28;20194;-78
2021/12/15 09:31:22;;;;;;;44.47;29.20;;;10.30;99.90;;;;;;4959307;28;20179;-78
2021/12/15 09:33:52;;;;;;;45.50;30.23;;;10.20;99.90;;;;;;4982094;28;20237;-78
2021/12/15 09:36:20;;;;;;;46.67;29.57;;;10.30;99.90;;;;;;4964475;28;20273;-78
2021/12/15 09:38:59;;;;;;;46.37;29.80;;;10.20;99.90;;;;;;4974210;28;20229;-78
2021/12/15 09:41:25;;;;;;;43.80;29.30;;;10.20;99.90;;;;;;4992753;28;20191;-77
2021/12/15 09:44:25;;;;;;;46.13;30.03;;;10.30;99.90;;;;;;4990298;28;20239;-77
2021/12/15 10:04:14;;;;;;;50.57;30.93;;;10.30;99.90;;;;;;4990521;28;20202;-78
2021/12/15 10:12:18;;;;;;;47.57;30.43;;;10.30;99.90;;;;;;4994052;28;20170;-78
2021/12/15 10:17:50;;;;;;;49.50;29.50;;;10.30;99.90;;;;;;4990895;28;20579;-77
2021/12/15 10:20:25;;;;;;;48.77;30.83;;;10.40;99.90;;;;;;5000492;28;20177;-80
2021/12/15 10:22:58;;;;;;;48.70;31.60;;;10.40;99.90;;;;;;4998383;28;20202;-80
2021/12/15 10:25:31;;;;;;;49.13;31.40;;;10.40;99.90;;;;;;4998943;28;20190;-80
2021/12/15 10:28:06;;;;;;;48.53;31.47;;;10.40;99.90;;;;;;5010408;28;20204;-80
2021/12/15 10:30:37;;;;;;;46.73;31.03;;;10.40;99.90;;;;;;4986158;28;20205;-79
2021/12/15 10:33:06;;;;;;;47.87;30.83;;;10.40;99.90;;;;;;5001086;28;20185;-80
2021/12/15 10:35:41;;;;;;;48.40;30.90;;;10.40;99.90;;;;;;5002039;28;20185;-79
2021/12/15 10:38:30;;;;;;;50.17;31.23;;;10.40;99.90;;;;;;4986597;28;20210;-80
2021/12/15 10:41:32;;;;;;;54.57;33.17;;;10.40;99.90;;;;;;5004533;28;20225;-79
2021/12/15 10:44:01;;;;;;;49.10;30.37;;;10.50;99.90;;;;;;4990803;28;20237;-79
2021/12/15 10:46:39;;;;;;;47.73;31.23;;;10.50;99.90;;;;;;5006341;28;20197;-79
2021/12/15 10:49:08;;;;;;;49.30;30.97;;;10.50;99.90;;;;;;5005821;28;20198;-80
2021/12/15 10:51:45;;;;;;;49.77;31.97;;;10.50;99.90;;;;;;5014338;28;20182;-81
2021/12/15 10:54:18;;;;;;;46.63;30.77;;;10.50;99.90;;;;;;5016867;28;20177;-79
2021/12/15 10:56:57;;;;;;;52.20;31.83;;;10.40;99.90;;;;;;5026985;28;20280;-78
2021/12/15 10:59:30;;;;;;;50.37;32.17;;;10.50;99.90;;;;;;5040182;28;20266;-80
2021/12/15 11:02:05;;;;;;;46.37;30.93;;;10.50;99.90;;;;;;5009832;28;20199;-80
2021/12/15 11:04:37;;;;;;;53.17;33.10;;;10.50;99.90;;;;;;4995646;28;20202;-79
2021/12/15 11:07:11;;;;;;;51.93;32.73;;;10.40;99.90;;;;;;5012206;28;20166;-80
2021/12/15 11:09:42;;;;;;;51.50;32.97;;;10.40;99.90;;;;;;5012744;28;20193;-80
2021/12/15 11:12:34;;;;;;;53.17;32.33;;;10.50;99.90;;;;;;5005519;28;20685;-81
2021/12/15 11:15:05;;;;;;;56.20;32.70;;;10.40;99.90;;;;;;5013094;28;20188;-78
2021/12/15 11:17:36;;;;;;;50.40;32.43;;;10.50;99.90;;;;;;5011954;28;20245;-79
2021/12/15 11:20:19;;;;;;;49.50;31.93;;;10.40;99.90;;;;;;5010355;28;20217;-79
2021/12/15 11:22:51;;;;;;;49.13;31.70;;;10.50;99.90;;;;;;5019984;28;20340;-80
2021/12/15 11:25:49;;;;;;;53.73;31.40;;;10.50;99.90;;;;;;5037094;28;20174;-79
2021/12/15 11:28:20;;;;;;;50.83;31.80;;;10.40;99.90;;;;;;5033919;28;20233;-80
2021/12/15 11:30:45;;;;;;;50.97;30.93;;;10.50;99.90;;;;;;5050391;28;20172;-80
2021/12/15 11:33:17;;;;;;;53.80;34.27;;;10.50;99.90;;;;;;5028297;28;20193;-80
2021/12/15 11:35:51;;;;;;;49.80;31.17;;;10.50;99.90;;;;;;5010104;28;20834;-81
2021/12/15 11:38:26;;;;;;;48.83;30.90;;;10.50;99.90;;;;;;5023835;28;20220;-80
2021/12/15 11:40:58;;;;;;;49.33;31.50;;;10.60;99.90;;;;;;5036290;28;20169;-78
2021/12/15 11:43:41;;;;;;;53.20;32.60;;;10.60;99.90;;;;;;5031621;28;20199;-80
2021/12/15 11:46:39;;;;;;;49.70;31.07;;;10.60;99.90;;;;;;5028254;28;20175;-80
2021/12/15 11:49:06;;;;;;;52.30;32.13;;;10.50;99.90;;;;;;5036896;28;20197;-79
2021/12/15 11:51:41;;;;;;;50.63;31.90;;;10.50;99.90;;;;;;5019500;28;20213;-78
2021/12/15 11:54:26;;;;;;;52.20;30.53;;;10.50;99.90;;;;;;5028522;28;20182;-80
2021/12/15 11:57:00;;;;;;;51.53;31.30;;;10.50;99.90;;;;;;5018998;28;20205;-80
2021/12/15 11:59:38;;;;;;;53.73;31.10;;;10.50;99.90;;;;;;5030081;28;20270;-80
2021/12/15 12:02:24;;;;;;;48.63;30.40;;;10.50;99.90;;;;;;5012742;28;20180;-80
2021/12/15 12:04:57;;;;;;;50.60;30.37;;;10.60;99.90;;;;;;5011292;28;20216;-79
2021/12/15 12:07:23;;;;;;;47.63;30.23;;;10.50;99.90;;;;;;5015864;28;20190;-81
2021/12/15 12:09:54;;;;;;;49.17;30.43;;;10.60;99.90;;;;;;5041154;28;20205;-79
2021/12/15 12:12:24;;;;;;;49.43;30.63;;;10.60;99.90;;;;;;5059696;28;20176;-77
2021/12/15 12:14:50;;;;;;;46.67;29.00;;;10.60;99.90;;;;;;5026077;28;20183;-80
2021/12/15 12:17:26;;;;;;;52.00;31.20;;;10.70;99.90;;;;;;5025689;28;20183;-81
2021/12/15 12:20:03;;;;;;;47.23;29.53;;;10.60;99.90;;;;;;5032972;28;20236;-80
2021/12/15 12:22:32;;;;;;;45.50;28.60;;;10.70;99.90;;;;;;5026177;28;20170;-79
2021/12/15 12:25:00;;;;;;;47.00;29.83;;;10.70;99.90;;;;;;5014480;28;20176;-80
2021/12/15 12:27:31;;;;;;;46.50;29.67;;;10.70;99.90;;;;;;5033296;28;20233;-80
2021/12/15 12:30:00;;;;;;;50.97;30.97;;;10.70;99.90;;;;;;5027569;28;20194;-80
2021/12/15 12:32:26;;;;;;;43.10;27.97;;;10.70;99.90;;;;;;5016170;28;20535;-80
2021/12/15 12:34:54;;;;;;;47.10;28.33;;;10.70;99.90;;;;;;5011890;28;20173;-80
2021/12/15 12:37:23;;;;;;;49.13;28.80;;;10.70;99.90;;;;;;5009995;28;20178;-79
2021/12/15 12:39:56;;;;;;;45.33;29.03;;;10.70;99.90;;;;;;5029621;28;20213;-79
2021/12/15 12:42:37;;;;;;;43.33;26.90;;;10.70;99.90;;;;;;5019825;28;20533;-80
2021/12/15 12:45:18;;;;;;;42.73;27.37;;;10.70;99.90;;;;;;5026000;28;20167;-80
2021/12/15 12:48:03;;;;;;;45.00;27.90;;;10.80;99.90;;;;;;5021062;28;20173;-79
2021/12/15 13:01:09;;;;;;;42.77;26.97;;;10.70;99.90;;;;;;5029972;28;20185;-81
2021/12/15 13:04:19;;;;;;;45.80;27.20;;;10.60;99.90;;;;;;5020158;28;20210;-81
2021/12/15 13:08:00;;;;;;;;;;;;;;;;;;;;;
2021/12/15 13:11:16;;;;;;;;;;;;;;;;;;;;;
2021/12/15 13:14:46;;;;;;;42.13;26.20;;;10.70;99.90;;;;;;5021268;28;20228;-80
2021/12/15 13:29:31;;;;;;;40.03;25.03;;;10.60;99.90;;;;;;4918561;28;20216;-81
2021/12/15 13:33:04;;;;;;;;;;;;;;;;;;;;;
2021/12/15 13:36:33;;;;;;;40.80;25.83;;;10.60;99.90;;;;;;4986941;28;20250;-80
2021/12/15 13:43:42;;;;;;;42.03;25.60;;;10.50;99.90;;;;;;4974646;28;20230;-80
2021/12/15 13:47:16;;;;;;;;;;;;;;;;;;;;;
2021/12/15 13:51:19;;;;;;;40.07;25.77;;;10.50;99.90;;;;;;4834136;29;20215;-80
2021/12/15 13:59:09;;;;;;;36.20;24.40;;;10.50;99.90;;;;;;4864842;29;20210;-81
2021/12/15 14:13:53;;;;;;;35.10;23.30;;;10.50;99.90;;;;;;4858547;29;20198;-81
2021/12/15 14:16:31;;;;;;;38.20;22.40;;;10.40;99.90;;;;;;4843276;29;20175;-79
2021/12/15 14:19:00;;;;;;;38.03;24.43;;;10.40;99.90;;;;;;4926778;29;20672;-80
2021/12/15 14:21:27;;;;;;;35.03;23.47;;;10.40;99.90;;;;;;4968062;28;20181;-79
2021/12/15 14:24:00;;;;;;;33.80;21.70;;;10.40;99.90;;;;;;5008505;28;20262;-80
2021/12/15 14:26:30;;;;;;;31.40;20.63;;;10.40;99.90;;;;;;5028518;28;20643;-80
2021/12/15 14:29:03;;;;;;;30.27;20.70;;;10.30;99.90;;;;;;5013994;28;20198;-80
2021/12/15 14:31:42;;;;;;;35.27;21.43;;;10.30;99.90;;;;;;5014729;28;20205;-81
2021/12/15 14:34:21;;;;;;;31.73;20.20;;;10.40;99.90;;;;;;5026601;28;20704;-82
2021/12/15 14:36:50;;;;;;;32.20;20.33;;;10.40;99.90;;;;;;5049164;28;20178;-80
2021/12/15 14:39:34;;;;;;;26.13;17.63;;;10.40;99.90;;;;;;5016661;28;20270;-80
2021/12/15 14:42:08;;;;;;;31.13;19.10;;;10.40;99.90;;;;;;5038258;28;20193;-80
2021/12/15 14:44:38;;;;;;;28.10;17.47;;;10.40;99.90;;;;;;5040709;28;20266;-79
2021/12/15 14:47:14;;;;;;;24.87;17.60;;;10.40;99.90;;;;;;5027296;28;20174;-80
2021/12/15 14:49:45;;;;;;;26.57;17.90;;;10.40;99.90;;;;;;5026771;28;20197;-79
2021/12/15 14:52:18;;;;;;;23.63;16.50;;;10.30;99.90;;;;;;5034581;28;20167;-79
2021/12/15 14:54:46;;;;;;;22.93;15.70;;;10.40;99.90;;;;;;5016821;28;20182;-79
2021/12/15 14:57:15;;;;;;;25.20;17.00;;;10.30;99.90;;;;;;5034225;28;20207;-78
2021/12/15 14:59:54;;;;;;;24.17;15.97;;;10.30;99.90;;;;;;5026297;28;20209;-78
2021/12/15 15:02:33;;;;;;;22.17;15.03;;;10.30;99.90;;;;;;5035293;28;20172;-79
2021/12/15 15:05:05;;;;;;;25.67;15.43;;;10.40;99.90;;;;;;5041783;28;20301;-79
2021/12/15 15:07:35;;;;;;;23.90;15.20;;;10.40;99.90;;;;;;5026139;28;20182;-77